sensor_id;sensor_type;location;lat;lon;timestamp;pressure;altitude;pressure_sealevel;temperature;humidity
69624;BME280;56843;52.020;5.670;2023-04-20T00:00:27;102183.53;;;10.71;33.63
69624;BME280;56843;52.020;5.670;2023-04-20T00:01:58;102187.56;;;10.68;33.54
69624;BME280;56843;52.020;5.670;2023-04-20T00:03:32;102184.66;;;10.65;33.66
69624;BME280;56843;52.020;5.670;2023-04-20T00:05:05;102181.78;;;10.61;33.83
69624;BME280;56843;52.020;5.670;2023-04-20T00:06:36;102171.38;;;10.60;33.60
69624;BME280;56843;52.020;5.670;2023-04-20T00:08:07;102170.09;;;10.57;34.02
69624;BME280;56843;52.020;5.670;2023-04-20T00:09:38;102172.25;;;10.55;33.70
69624;BME280;56843;52.020;5.670;2023-04-20T00:11:08;102170.66;;;10.54;33.99
69624;BME280;56843;52.020;5.670;2023-04-20T00:12:40;102167.97;;;10.54;34.11
69624;BME280;56843;52.020;5.670;2023-04-20T00:14:11;102164.81;;;10.52;34.25
69624;BME280;56843;52.020;5.670;2023-04-20T00:15:41;102154.41;;;10.51;33.95
69624;BME280;56843;52.020;5.670;2023-04-20T00:17:12;102160.06;;;10.49;34.19
69624;BME280;56843;52.020;5.670;2023-04-20T00:18:45;102154.19;;;10.47;34.27
69624;BME280;56843;52.020;5.670;2023-04-20T00:20:16;102150.25;;;10.45;34.12
69624;BME280;56843;52.020;5.670;2023-04-20T00:21:47;102147.03;;;10.43;34.35
69624;BME280;56843;52.020;5.670;2023-04-20T00:23:18;102137.44;;;10.42;34.66
69624;BME280;56843;52.020;5.670;2023-04-20T00:24:51;102140.41;;;10.40;34.40
69624;BME280;56843;52.020;5.670;2023-04-20T00:26:22;102139.91;;;10.38;34.43
69624;BME280;56843;52.020;5.670;2023-04-20T00:27:56;102131.66;;;10.34;34.56
69624;BME280;56843;52.020;5.670;2023-04-20T00:29:27;102125.53;;;10.34;34.68
69624;BME280;56843;52.020;5.670;2023-04-20T00:30:58;102128.78;;;10.31;34.89
69624;BME280;56843;52.020;5.670;2023-04-20T00:32:29;102121.56;;;10.31;34.59
69624;BME280;56843;52.020;5.670;2023-04-20T00:34:00;102110.66;;;10.28;34.94
69624;BME280;56843;52.020;5.670;2023-04-20T00:35:30;102109.09;;;10.27;34.76
69624;BME280;56843;52.020;5.670;2023-04-20T00:37:01;102110.97;;;10.26;34.85
69624;BME280;56843;52.020;5.670;2023-04-20T00:38:32;102108.06;;;10.23;34.96
69624;BME280;56843;52.020;5.670;2023-04-20T00:40:03;102102.72;;;10.23;35.08
69624;BME280;56843;52.020;5.670;2023-04-20T00:41:34;102095.31;;;10.20;34.97
69624;BME280;56843;52.020;5.670;2023-04-20T00:43:11;102093.41;;;10.20;34.90
69624;BME280;56843;52.020;5.670;2023-04-20T00:44:42;102094.00;;;10.17;35.17
69624;BME280;56843;52.020;5.670;2023-04-20T00:46:12;102096.94;;;10.16;35.03
69624;BME280;56843;52.020;5.670;2023-04-20T00:47:43;102095.34;;;10.15;35.11
69624;BME280;56843;52.020;5.670;2023-04-20T00:49:13;102082.28;;;10.13;35.17
69624;BME280;56843;52.020;5.670;2023-04-20T00:50:44;102077.22;;;10.12;35.09
69624;BME280;56843;52.020;5.670;2023-04-20T00:52:15;102078.31;;;10.11;35.20
69624;BME280;56843;52.020;5.670;2023-04-20T00:53:45;102075.66;;;10.11;35.37
69624;BME280;56843;52.020;5.670;2023-04-20T00:55:18;102069.00;;;10.08;35.04
69624;BME280;56843;52.020;5.670;2023-04-20T00:56:51;102062.88;;;10.08;35.38
69624;BME280;56843;52.020;5.670;2023-04-20T00:58:21;102062.34;;;10.06;35.42
69624;BME280;56843;52.020;5.670;2023-04-20T00:59:52;102058.13;;;10.05;35.24
69624;BME280;56843;52.020;5.670;2023-04-20T01:03:57;102050.25;;;9.95;35.60
69624;BME280;56843;52.020;5.670;2023-04-20T01:05:27;102054.50;;;9.96;35.52
69624;BME280;56843;52.020;5.670;2023-04-20T01:06:59;102048.06;;;9.97;35.51
69624;BME280;56843;52.020;5.670;2023-04-20T01:08:29;102045.41;;;9.97;35.45
69624;BME280;56843;52.020;5.670;2023-04-20T01:10:00;102045.41;;;9.97;35.66
69624;BME280;56843;52.020;5.670;2023-04-20T01:11:30;102042.22;;;9.95;35.78
69624;BME280;56843;52.020;5.670;2023-04-20T01:13:01;102038.50;;;9.96;35.84
69624;BME280;56843;52.020;5.670;2023-04-20T01:14:32;102039.56;;;9.95;35.85
69624;BME280;56843;52.020;5.670;2023-04-20T01:16:03;102030.50;;;9.96;35.75
69624;BME280;56843;52.020;5.670;2023-04-20T01:17:34;102033.44;;;9.94;35.90
69624;BME280;56843;52.020;5.670;2023-04-20T01:19:08;102032.13;;;9.92;36.03
69624;BME280;56843;52.020;5.670;2023-04-20T01:20:39;102020.38;;;9.93;36.32
69624;BME280;56843;52.020;5.670;2023-04-20T01:22:18;102028.38;;;9.93;36.04
69624;BME280;56843;52.020;5.670;2023-04-20T01:23:49;102024.91;;;9.92;36.22
69624;BME280;56843;52.020;5.670;2023-04-20T01:25:20;102026.78;;;9.92;36.21
69624;BME280;56843;52.020;5.670;2023-04-20T01:26:51;102019.56;;;9.92;36.40
69624;BME280;56843;52.020;5.670;2023-04-20T01:28:21;102021.44;;;9.92;36.32
69624;BME280;56843;52.020;5.670;2023-04-20T01:29:52;102018.78;;;9.92;36.57
69624;BME280;56843;52.020;5.670;2023-04-20T01:31:22;102012.94;;;9.90;36.65
69624;BME280;56843;52.020;5.670;2023-04-20T01:32:54;102019.38;;;9.89;36.59
69624;BME280;56843;52.020;5.670;2023-04-20T01:34:26;102016.72;;;9.89;36.72
69624;BME280;56843;52.020;5.670;2023-04-20T01:35:57;102016.97;;;9.87;36.84
69624;BME280;56843;52.020;5.670;2023-04-20T01:37:28;102013.22;;;9.88;37.21
69624;BME280;56843;52.020;5.670;2023-04-20T01:38:59;102008.19;;;9.87;37.20
69624;BME280;56843;52.020;5.670;2023-04-20T01:40:32;102008.97;;;9.87;37.20
69624;BME280;56843;52.020;5.670;2023-04-20T01:42:03;102005.53;;;9.87;37.44
69624;BME280;56843;52.020;5.670;2023-04-20T01:43:35;102003.63;;;9.87;37.57
69624;BME280;56843;52.020;5.670;2023-04-20T01:45:07;102006.31;;;9.87;37.73
69624;BME280;56843;52.020;5.670;2023-04-20T01:46:39;102000.97;;;9.87;37.87
69624;BME280;56843;52.020;5.670;2023-04-20T01:48:10;102004.44;;;9.88;37.98
69624;BME280;56843;52.020;5.670;2023-04-20T01:49:41;101997.22;;;9.88;38.31
69624;BME280;56843;52.020;5.670;2023-04-20T01:51:12;102001.19;;;9.91;38.05
69624;BME280;56843;52.020;5.670;2023-04-20T01:52:43;101998.53;;;9.91;38.05
69624;BME280;56843;52.020;5.670;2023-04-20T01:54:13;101996.38;;;9.93;38.38
69624;BME280;56843;52.020;5.670;2023-04-20T01:55:44;101991.81;;;9.93;38.41
69624;BME280;56843;52.020;5.670;2023-04-20T01:57:14;101988.88;;;9.95;38.26
69624;BME280;56843;52.020;5.670;2023-04-20T01:58:45;101978.75;;;9.92;38.50
69624;BME280;56843;52.020;5.670;2023-04-20T02:00:15;101982.72;;;9.94;38.61
69624;BME280;56843;52.020;5.670;2023-04-20T02:01:47;101989.97;;;9.94;38.55
69624;BME280;56843;52.020;5.670;2023-04-20T02:03:17;101986.19;;;9.95;38.74
69624;BME280;56843;52.020;5.670;2023-04-20T02:04:48;101980.91;;;9.90;38.68
69624;BME280;56843;52.020;5.670;2023-04-20T02:06:19;101975.03;;;9.93;38.86
69624;BME280;56843;52.020;5.670;2023-04-20T02:07:49;101968.06;;;9.92;38.98
69624;BME280;56843;52.020;5.670;2023-04-20T02:09:20;101975.31;;;9.91;39.11
69624;BME280;56843;52.020;5.670;2023-04-20T02:10:51;101967.56;;;9.90;39.05
69624;BME280;56843;52.020;5.670;2023-04-20T02:12:21;101973.22;;;9.88;39.41
69624;BME280;56843;52.020;5.670;2023-04-20T02:13:52;101966.00;;;9.89;39.40
69624;BME280;56843;52.020;5.670;2023-04-20T02:15:23;101967.06;;;9.88;39.55
69624;BME280;56843;52.020;5.670;2023-04-20T02:16:53;101967.06;;;9.88;39.47
69624;BME280;56843;52.020;5.670;2023-04-20T02:18:24;101954.34;;;9.85;39.70
69624;BME280;56843;52.020;5.670;2023-04-20T02:19:54;101958.56;;;9.86;39.57
69624;BME280;56843;52.020;5.670;2023-04-20T02:21:25;101958.88;;;9.84;39.50
69624;BME280;56843;52.020;5.670;2023-04-20T02:22:57;101957.28;;;9.83;39.86
69624;BME280;56843;52.020;5.670;2023-04-20T02:24:27;101959.16;;;9.83;39.78
69624;BME280;56843;52.020;5.670;2023-04-20T02:25:58;101944.53;;;9.80;40.04
69624;BME280;56843;52.020;5.670;2023-04-20T02:27:30;101941.06;;;9.80;40.09
69624;BME280;56843;52.020;5.670;2023-04-20T02:29:00;101945.91;;;9.78;39.97
69624;BME280;56843;52.020;5.670;2023-04-20T02:30:31;101948.56;;;9.78;40.28
69624;BME280;56843;52.020;5.670;2023-04-20T02:32:02;101939.25;;;9.75;40.25
69624;BME280;56843;52.020;5.670;2023-04-20T02:33:32;101934.22;;;9.74;40.42
69624;BME280;56843;52.020;5.670;2023-04-20T02:35:03;101936.38;;;9.72;40.36
69624;BME280;56843;52.020;5.670;2023-04-20T02:36:34;101937.16;;;9.72;40.48
69624;BME280;56843;52.020;5.670;2023-04-20T02:38:05;101931.06;;;9.72;40.58
69624;BME280;56843;52.020;5.670;2023-04-20T02:39:35;101922.50;;;9.70;40.68
69624;BME280;56843;52.020;5.670;2023-04-20T02:41:06;101936.94;;;9.69;40.75
69624;BME280;56843;52.020;5.670;2023-04-20T02:42:37;101922.81;;;9.68;40.78
69624;BME280;56843;52.020;5.670;2023-04-20T02:44:10;101931.91;;;9.67;40.59
69624;BME280;56843;52.020;5.670;2023-04-20T02:45:41;101929.00;;;9.63;41.11
69624;BME280;56843;52.020;5.670;2023-04-20T02:47:13;101928.16;;;9.68;41.10
69624;BME280;56843;52.020;5.670;2023-04-20T02:48:43;101928.44;;;9.67;41.26
69624;BME280;56843;52.020;5.670;2023-04-20T02:50:14;101925.47;;;9.68;41.37
69624;BME280;56843;52.020;5.670;2023-04-20T02:52:07;101916.47;;;9.64;41.39
69624;BME280;56843;52.020;5.670;2023-04-20T02:53:38;101922.63;;;9.65;41.65
69624;BME280;56843;52.020;5.670;2023-04-20T02:55:21;101910.06;;;9.65;41.69
69624;BME280;56843;52.020;5.670;2023-04-20T02:56:54;101916.19;;;9.66;42.05
69624;BME280;56843;52.020;5.670;2023-04-20T02:58:25;101917.78;;;9.67;41.73
69624;BME280;56843;52.020;5.670;2023-04-20T03:00:12;101916.19;;;9.66;41.86
69624;BME280;56843;52.020;5.670;2023-04-20T03:02:03;101909.28;;;9.65;41.92
69624;BME280;56843;52.020;5.670;2023-04-20T03:03:34;101915.91;;;9.67;42.04
69624;BME280;56843;52.020;5.670;2023-04-20T03:05:05;101916.41;;;9.69;42.16
69624;BME280;56843;52.020;5.670;2023-04-20T03:06:43;101917.97;;;9.70;42.30
69624;BME280;56843;52.020;5.670;2023-04-20T03:08:18;101909.19;;;9.70;42.50
69624;BME280;56843;52.020;5.670;2023-04-20T03:09:51;101908.91;;;9.71;42.32
69624;BME280;56843;52.020;5.670;2023-04-20T03:11:35;101903.84;;;9.70;42.69
69624;BME280;56843;52.020;5.670;2023-04-20T03:13:06;101906.25;;;9.71;42.67
69624;BME280;56843;52.020;5.670;2023-04-20T03:14:53;101899.53;;;9.74;42.89
69624;BME280;56843;52.020;5.670;2023-04-20T03:16:29;101901.13;;;9.75;43.01
69624;BME280;56843;52.020;5.670;2023-04-20T03:18:00;101897.66;;;9.74;42.96
69624;BME280;56843;52.020;5.670;2023-04-20T03:19:31;101895.22;;;9.78;42.95
69624;BME280;56843;52.020;5.670;2023-04-20T03:21:01;101903.72;;;9.80;43.08
69624;BME280;56843;52.020;5.670;2023-04-20T03:22:34;101897.56;;;9.79;43.04
69624;BME280;56843;52.020;5.670;2023-04-20T03:24:06;101891.16;;;9.80;43.24
69624;BME280;56843;52.020;5.670;2023-04-20T03:25:36;101889.00;;;9.82;43.26
69624;BME280;56843;52.020;5.670;2023-04-20T03:27:12;101895.91;;;9.83;43.39
69624;BME280;56843;52.020;5.670;2023-04-20T03:28:58;101881.78;;;9.83;43.48
69624;BME280;56843;52.020;5.670;2023-04-20T03:30:30;101877.72;;;9.85;43.58
69624;BME280;56843;52.020;5.670;2023-04-20T03:32:06;101884.97;;;9.85;43.51
69624;BME280;56843;52.020;5.670;2023-04-20T03:33:37;101862.53;;;9.86;43.61
69624;BME280;56843;52.020;5.670;2023-04-20T03:35:08;101877.16;;;9.88;43.49
69624;BME280;56843;52.020;5.670;2023-04-20T03:36:39;101876.09;;;9.89;43.74
69624;BME280;56843;52.020;5.670;2023-04-20T03:38:10;101870.75;;;9.89;43.60
69624;BME280;56843;52.020;5.670;2023-04-20T03:39:40;101876.59;;;9.91;43.72
69624;BME280;56843;52.020;5.670;2023-04-20T03:41:11;101871.25;;;9.91;43.81
69624;BME280;56843;52.020;5.670;2023-04-20T03:42:42;101869.34;;;9.92;43.89
69624;BME280;56843;52.020;5.670;2023-04-20T03:44:12;101863.75;;;9.93;43.78
69624;BME280;56843;52.020;5.670;2023-04-20T03:45:44;101871.75;;;9.93;43.86
69624;BME280;56843;52.020;5.670;2023-04-20T03:47:14;101867.22;;;9.94;44.13
69624;BME280;56843;52.020;5.670;2023-04-20T03:48:45;101873.06;;;9.96;44.19
69624;BME280;56843;52.020;5.670;2023-04-20T03:50:16;101871.94;;;9.97;44.09
69624;BME280;56843;52.020;5.670;2023-04-20T03:51:46;101870.88;;;9.98;44.20
69624;BME280;56843;52.020;5.670;2023-04-20T03:53:17;101875.13;;;9.99;44.11
69624;BME280;56843;52.020;5.670;2023-04-20T03:54:47;101865.25;;;9.99;44.06
69624;BME280;56843;52.020;5.670;2023-04-20T03:56:20;101856.16;;;10.00;44.29
69624;BME280;56843;52.020;5.670;2023-04-20T03:57:52;101867.03;;;10.04;44.13
69624;BME280;56843;52.020;5.670;2023-04-20T03:59:24;101869.69;;;10.04;44.48
69624;BME280;56843;52.020;5.670;2023-04-20T04:01:02;101859.81;;;10.04;44.24
69624;BME280;56843;52.020;5.670;2023-04-20T04:02:33;101854.19;;;10.06;44.50
69624;BME280;56843;52.020;5.670;2023-04-20T04:04:04;101859.22;;;10.07;44.39
69624;BME280;56843;52.020;5.670;2023-04-20T04:05:35;101852.00;;;10.08;44.39
69624;BME280;56843;52.020;5.670;2023-04-20T04:07:07;101849.84;;;10.10;44.74
69624;BME280;56843;52.020;5.670;2023-04-20T04:08:37;101857.56;;;10.11;44.37
69624;BME280;56843;52.020;5.670;2023-04-20T04:10:09;101853.81;;;10.12;44.39
69624;BME280;56843;52.020;5.670;2023-04-20T04:11:40;101848.16;;;10.14;44.50
69624;BME280;56843;52.020;5.670;2023-04-20T04:13:10;101855.09;;;10.15;44.44
69624;BME280;56843;52.020;5.670;2023-04-20T04:14:41;101846.78;;;10.16;44.23
69624;BME280;56843;52.020;5.670;2023-04-20T04:16:12;101851.34;;;10.16;44.44
69624;BME280;56843;52.020;5.670;2023-04-20T04:17:43;101845.75;;;10.17;44.42
69624;BME280;56843;52.020;5.670;2023-04-20T04:19:14;101835.56;;;10.19;44.46
69624;BME280;56843;52.020;5.670;2023-04-20T04:20:44;101827.56;;;10.19;44.55
69624;BME280;56843;52.020;5.670;2023-04-20T04:22:16;101828.06;;;10.21;44.56
69624;BME280;56843;52.020;5.670;2023-04-20T04:24:01;101821.63;;;10.22;44.73
69624;BME280;56843;52.020;5.670;2023-04-20T04:25:38;101819.25;;;10.21;44.79
69624;BME280;56843;52.020;5.670;2023-04-20T04:27:09;101824.31;;;10.22;44.83
69624;BME280;56843;52.020;5.670;2023-04-20T04:28:50;101817.06;;;10.23;44.67
69624;BME280;56843;52.020;5.670;2023-04-20T04:30:22;101822.41;;;10.23;44.86
69624;BME280;56843;52.020;5.670;2023-04-20T04:31:53;101809.06;;;10.23;44.78
69624;BME280;56843;52.020;5.670;2023-04-20T04:33:24;101819.47;;;10.24;45.12
69624;BME280;56843;52.020;5.670;2023-04-20T04:34:56;101808.78;;;10.24;45.11
69624;BME280;56843;52.020;5.670;2023-04-20T04:36:28;101802.34;;;10.25;44.58
69624;BME280;56843;52.020;5.670;2023-04-20T04:38:01;101803.94;;;10.26;44.88
69624;BME280;56843;52.020;5.670;2023-04-20T04:39:32;101794.81;;;10.27;45.07
69624;BME280;56843;52.020;5.670;2023-04-20T04:41:11;101800.47;;;10.26;45.00
69624;BME280;56843;52.020;5.670;2023-04-20T04:42:42;101789.31;;;10.24;45.23
69624;BME280;56843;52.020;5.670;2023-04-20T04:44:15;101798.00;;;10.29;44.72
69624;BME280;56843;52.020;5.670;2023-04-20T04:45:46;101800.06;;;10.32;45.25
69624;BME280;56843;52.020;5.670;2023-04-20T04:47:16;101799.50;;;10.36;45.08
69624;BME280;56843;52.020;5.670;2023-04-20T04:48:49;101804.53;;;10.37;45.23
69624;BME280;56843;52.020;5.670;2023-04-20T04:50:19;101802.34;;;10.39;45.31
69624;BME280;56843;52.020;5.670;2023-04-20T04:51:51;101804.72;;;10.41;45.29
69624;BME280;56843;52.020;5.670;2023-04-20T04:53:21;101800.97;;;10.42;45.47
69624;BME280;56843;52.020;5.670;2023-04-20T04:54:52;101801.47;;;10.44;45.44
69624;BME280;56843;52.020;5.670;2023-04-20T04:56:22;101799.59;;;10.44;45.35
69624;BME280;56843;52.020;5.670;2023-04-20T04:57:53;101801.97;;;10.46;45.56
69624;BME280;56843;52.020;5.670;2023-04-20T04:59:23;101811.84;;;10.45;45.57
69624;BME280;56843;52.020;5.670;2023-04-20T05:00:54;101799.28;;;10.46;45.78
69624;BME280;56843;52.020;5.670;2023-04-20T05:02:24;101814.25;;;10.47;45.49
69624;BME280;56843;52.020;5.670;2023-04-20T05:03:55;101803.56;;;10.47;45.87
69624;BME280;56843;52.020;5.670;2023-04-20T05:05:25;101805.91;;;10.48;45.96
69624;BME280;56843;52.020;5.670;2023-04-20T05:06:56;101797.91;;;10.48;45.92
69624;BME280;56843;52.020;5.670;2023-04-20T05:08:26;101801.16;;;10.45;45.94
69624;BME280;56843;52.020;5.670;2023-04-20T05:09:57;101809.09;;;10.50;45.95
69624;BME280;56843;52.020;5.670;2023-04-20T05:11:27;101813.34;;;10.51;45.99
69624;BME280;56843;52.020;5.670;2023-04-20T05:12:58;101808.00;;;10.51;46.32
69624;BME280;56843;52.020;5.670;2023-04-20T05:14:30;101809.56;;;10.52;46.46
69624;BME280;56843;52.020;5.670;2023-04-20T05:16:01;101813.03;;;10.53;46.31
69624;BME280;56843;52.020;5.670;2023-04-20T05:17:32;101802.34;;;10.53;46.34
69624;BME280;56843;52.020;5.670;2023-04-20T05:19:02;101803.91;;;10.54;46.48
69624;BME280;56843;52.020;5.670;2023-04-20T05:20:33;101800.47;;;10.53;46.39
69624;BME280;56843;52.020;5.670;2023-04-20T05:22:03;101795.91;;;10.54;46.43
69624;BME280;56843;52.020;5.670;2023-04-20T05:23:34;101801.25;;;10.54;46.48
69624;BME280;56843;52.020;5.670;2023-04-20T05:25:05;101794.03;;;10.54;46.59
69624;BME280;56843;52.020;5.670;2023-04-20T05:26:36;101807.13;;;10.56;46.74
69624;BME280;56843;52.020;5.670;2023-04-20T05:28:06;101800.19;;;10.55;46.91
69624;BME280;56843;52.020;5.670;2023-04-20T05:29:37;101795.63;;;10.55;46.85
69624;BME280;56843;52.020;5.670;2023-04-20T05:31:07;101789.50;;;10.55;46.89
69624;BME280;56843;52.020;5.670;2023-04-20T05:32:38;101800.66;;;10.57;46.93
69624;BME280;56843;52.020;5.670;2023-04-20T05:34:08;101792.06;;;10.60;47.04
69624;BME280;56843;52.020;5.670;2023-04-20T05:35:39;101795.31;;;10.70;47.12
69624;BME280;56843;52.020;5.670;2023-04-20T05:37:10;101797.50;;;10.82;46.84
69624;BME280;56843;52.020;5.670;2023-04-20T05:38:41;101790.34;;;10.91;46.98
69624;BME280;56843;52.020;5.670;2023-04-20T05:40:11;101788.13;;;11.06;46.73
69624;BME280;56843;52.020;5.670;2023-04-20T05:41:42;101791.38;;;11.17;46.91
69624;BME280;56843;52.020;5.670;2023-04-20T05:43:12;101792.72;;;11.28;46.56
69624;BME280;56843;52.020;5.670;2023-04-20T05:44:43;101789.00;;;11.38;46.52
69624;BME280;56843;52.020;5.670;2023-04-20T05:46:13;101797.09;;;11.46;46.79
69624;BME280;56843;52.020;5.670;2023-04-20T05:47:54;101799.56;;;11.56;46.69
69624;BME280;56843;52.020;5.670;2023-04-20T05:49:24;101790.31;;;11.62;46.87
69624;BME280;56843;52.020;5.670;2023-04-20T05:50:55;101780.75;;;11.70;46.56
69624;BME280;56843;52.020;5.670;2023-04-20T05:52:25;101781.88;;;11.77;46.93
69624;BME280;56843;52.020;5.670;2023-04-20T05:53:56;101792.19;;;11.84;46.95
69624;BME280;56843;52.020;5.670;2023-04-20T05:55:26;101791.75;;;11.91;47.05
69624;BME280;56843;52.020;5.670;2023-04-20T05:56:57;101777.44;;;11.95;46.74
69624;BME280;56843;52.020;5.670;2023-04-20T05:58:30;101782.84;;;12.04;46.84
69624;BME280;56843;52.020;5.670;2023-04-20T06:00:01;101767.72;;;12.08;46.68
69624;BME280;56843;52.020;5.670;2023-04-20T06:01:43;101773.44;;;12.15;47.05
69624;BME280;56843;52.020;5.670;2023-04-20T06:03:13;101765.56;;;12.18;46.82
69624;BME280;56843;52.020;5.670;2023-04-20T06:04:44;101767.78;;;12.25;47.17
69624;BME280;56843;52.020;5.670;2023-04-20T06:06:14;101758.84;;;12.29;47.21
69624;BME280;56843;52.020;5.670;2023-04-20T06:07:45;101770.22;;;12.35;46.91
69624;BME280;56843;52.020;5.670;2023-04-20T06:09:15;101766.09;;;12.37;46.86
69624;BME280;56843;52.020;5.670;2023-04-20T06:10:46;101769.91;;;12.45;47.24
69624;BME280;56843;52.020;5.670;2023-04-20T06:12:17;101766.91;;;12.46;47.01
69624;BME280;56843;52.020;5.670;2023-04-20T06:13:47;101770.72;;;12.54;47.05
69624;BME280;56843;52.020;5.670;2023-04-20T06:15:18;101774.03;;;12.60;47.12
69624;BME280;56843;52.020;5.670;2023-04-20T06:16:48;101771.53;;;12.63;47.27
69624;BME280;56843;52.020;5.670;2023-04-20T06:18:19;101772.16;;;12.69;47.33
69624;BME280;56843;52.020;5.670;2023-04-20T06:19:50;101768.88;;;12.72;47.49
69624;BME280;56843;52.020;5.670;2023-04-20T06:21:20;101772.03;;;12.74;47.42
69624;BME280;56843;52.020;5.670;2023-04-20T06:22:53;101775.38;;;12.79;47.20
69624;BME280;56843;52.020;5.670;2023-04-20T06:24:24;101778.22;;;12.83;47.57
69624;BME280;56843;52.020;5.670;2023-04-20T06:25:57;101773.00;;;12.86;47.37
69624;BME280;56843;52.020;5.670;2023-04-20T06:27:27;101765.44;;;12.88;47.47
69624;BME280;56843;52.020;5.670;2023-04-20T06:28:58;101770.50;;;12.90;47.31
69624;BME280;56843;52.020;5.670;2023-04-20T06:30:28;101770.03;;;12.88;47.24
69624;BME280;56843;52.020;5.670;2023-04-20T06:31:59;101772.53;;;12.93;47.56
69624;BME280;56843;52.020;5.670;2023-04-20T06:33:29;101775.69;;;12.95;47.20
69624;BME280;56843;52.020;5.670;2023-04-20T06:35:00;101771.91;;;12.96;47.61
69624;BME280;56843;52.020;5.670;2023-04-20T06:36:30;101776.19;;;12.97;47.37
69624;BME280;56843;52.020;5.670;2023-04-20T06:38:01;101764.53;;;13.01;47.47
69624;BME280;56843;52.020;5.670;2023-04-20T06:39:32;101765.00;;;13.03;47.36
69624;BME280;56843;52.020;5.670;2023-04-20T06:41:02;101761.66;;;13.06;47.49
69624;BME280;56843;52.020;5.670;2023-04-20T06:42:33;101758.69;;;13.08;47.27
69624;BME280;56843;52.020;5.670;2023-04-20T06:44:04;101764.53;;;13.10;47.36
69624;BME280;56843;52.020;5.670;2023-04-20T06:45:35;101758.50;;;13.13;47.05
69624;BME280;56843;52.020;5.670;2023-04-20T06:47:05;101764.66;;;13.13;47.31
69624;BME280;56843;52.020;5.670;2023-04-20T06:48:36;101747.50;;;13.14;47.25
69624;BME280;56843;52.020;5.670;2023-04-20T06:50:06;101765.94;;;13.16;47.62
69624;BME280;56843;52.020;5.670;2023-04-20T06:51:38;101765.94;;;13.16;47.64
69624;BME280;56843;52.020;5.670;2023-04-20T06:53:09;101768.63;;;13.16;47.16
69624;BME280;56843;52.020;5.670;2023-04-20T06:54:39;101773.66;;;13.17;47.23
69624;BME280;56843;52.020;5.670;2023-04-20T06:56:09;101770.69;;;13.19;47.54
69624;BME280;56843;52.020;5.670;2023-04-20T06:57:41;101753.78;;;13.18;47.50
69624;BME280;56843;52.020;5.670;2023-04-20T06:59:13;101758.03;;;13.19;47.57
69624;BME280;56843;52.020;5.670;2023-04-20T07:00:45;101764.03;;;13.25;47.34
69624;BME280;56843;52.020;5.670;2023-04-20T07:02:16;101772.88;;;13.25;47.48
69624;BME280;56843;52.020;5.670;2023-04-20T07:03:47;101770.22;;;13.25;47.50
69624;BME280;56843;52.020;5.670;2023-04-20T07:05:18;101765.31;;;13.27;47.55
69624;BME280;56843;52.020;5.670;2023-04-20T07:06:48;101769.25;;;13.30;47.35
69624;BME280;56843;52.020;5.670;2023-04-20T07:08:20;101760.41;;;13.30;47.42
69624;BME280;56843;52.020;5.670;2023-04-20T07:09:51;101769.72;;;13.32;47.31
69624;BME280;56843;52.020;5.670;2023-04-20T07:11:23;101771.28;;;13.33;47.19
69624;BME280;56843;52.020;5.670;2023-04-20T07:12:53;101777.44;;;13.34;47.13
69624;BME280;56843;52.020;5.670;2023-04-20T07:14:23;101775.84;;;13.33;47.28
69624;BME280;56843;52.020;5.670;2023-04-20T07:15:54;101771.28;;;13.33;47.15
69624;BME280;56843;52.020;5.670;2023-04-20T07:17:28;101764.81;;;13.34;46.91
69624;BME280;56843;52.020;5.670;2023-04-20T07:18:58;101777.13;;;13.35;47.26
69624;BME280;56843;52.020;5.670;2023-04-20T07:20:29;101761.03;;;13.35;47.09
69624;BME280;56843;52.020;5.670;2023-04-20T07:21:59;101767.19;;;13.36;47.30
69624;BME280;56843;52.020;5.670;2023-04-20T07:23:30;101768.28;;;13.35;47.21
69624;BME280;56843;52.020;5.670;2023-04-20T07:25:01;101765.28;;;13.36;47.22
69624;BME280;56843;52.020;5.670;2023-04-20T07:26:34;101772.22;;;13.37;46.95
69624;BME280;56843;52.020;5.670;2023-04-20T07:28:04;101772.69;;;13.39;47.04
69624;BME280;56843;52.020;5.670;2023-04-20T07:29:35;101775.06;;;13.41;46.94
69624;BME280;56843;52.020;5.670;2023-04-20T07:31:05;101773.50;;;13.40;46.90
69624;BME280;56843;52.020;5.670;2023-04-20T07:32:37;101773.97;;;13.42;47.12
69624;BME280;56843;52.020;5.670;2023-04-20T07:34:08;101770.00;;;13.39;46.95
69624;BME280;56843;52.020;5.670;2023-04-20T07:35:38;101772.69;;;13.39;46.62
69624;BME280;56843;52.020;5.670;2023-04-20T07:37:09;101780.91;;;13.43;47.04
69624;BME280;56843;52.020;5.670;2023-04-20T07:38:40;101767.50;;;13.43;47.00
69624;BME280;56843;52.020;5.670;2023-04-20T07:40:10;101767.81;;;13.41;46.74
69624;BME280;56843;52.020;5.670;2023-04-20T07:41:41;101763.56;;;13.40;47.01
69624;BME280;56843;52.020;5.670;2023-04-20T07:43:11;101763.22;;;13.42;46.68
69624;BME280;56843;52.020;5.670;2023-04-20T07:44:42;101762.47;;;13.41;46.83
69624;BME280;56843;52.020;5.670;2023-04-20T07:46:19;101758.66;;;13.42;46.75
69624;BME280;56843;52.020;5.670;2023-04-20T07:47:50;101765.13;;;13.41;46.76
69624;BME280;56843;52.020;5.670;2023-04-20T07:49:21;101761.00;;;13.44;46.63
69624;BME280;56843;52.020;5.670;2023-04-20T07:50:52;101767.16;;;13.44;46.88
69624;BME280;56843;52.020;5.670;2023-04-20T07:52:23;101765.28;;;13.45;46.78
69624;BME280;56843;52.020;5.670;2023-04-20T07:53:55;101764.50;;;13.44;46.66
69624;BME280;56843;52.020;5.670;2023-04-20T07:55:26;101767.63;;;13.46;46.72
69624;BME280;56843;52.020;5.670;2023-04-20T07:56:56;101765.44;;;13.48;46.52
69624;BME280;56843;52.020;5.670;2023-04-20T07:58:27;101767.34;;;13.48;46.50
69624;BME280;56843;52.020;5.670;2023-04-20T07:59:57;101770.03;;;13.48;46.41
69624;BME280;56843;52.020;5.670;2023-04-20T08:01:28;101767.00;;;13.49;46.71
69624;BME280;56843;52.020;5.670;2023-04-20T08:02:58;101769.69;;;13.49;46.53